sensor_id;sensor_type;location;lat;lon;timestamp;P1;durP1;ratioP1;P2;durP2;ratioP2
35276;SDS011;21401;50.878;8.050;2022-09-27T00:02:17;10.65;;;3.85;;
35276;SDS011;21401;50.878;8.050;2022-09-27T00:04:49;21.42;;;3.72;;
35276;SDS011;21401;50.878;8.050;2022-09-27T00:07:17;11.07;;;3.22;;
35276;SDS011;21401;50.878;8.050;2022-09-27T00:09:45;11.63;;;3.40;;
35276;SDS011;21401;50.878;8.050;2022-09-27T00:12:13;9.32;;;2.90;;
35276;SDS011;21401;50.878;8.050;2022-09-27T00:14:39;6.80;;;2.80;;
35276;SDS011;21401;50.878;8.050;2022-09-27T00:17:06;8.55;;;3.03;;
35276;SDS011;21401;50.878;8.050;2022-09-27T00:19:33;4.43;;;2.35;;
35276;SDS011;21401;50.878;8.050;2022-09-27T00:21:59;7.45;;;2.75;;
35276;SDS011;21401;50.878;8.050;2022-09-27T00:24:29;7.63;;;3.17;;
35276;SDS011;21401;50.878;8.050;2022-09-27T00:26:55;5.80;;;2.40;;
35276;SDS011;21401;50.878;8.050;2022-09-27T00:29:23;7.05;;;2.55;;
35276;SDS011;21401;50.878;8.050;2022-09-27T00:31:49;6.78;;;2.55;;
35276;SDS011;21401;50.878;8.050;2022-09-27T00:34:17;4.60;;;1.98;;
35276;SDS011;21401;50.878;8.050;2022-09-27T00:36:44;2.88;;;1.77;;
35276;SDS011;21401;50.878;8.050;2022-09-27T00:39:13;7.50;;;2.00;;
35276;SDS011;21401;50.878;8.050;2022-09-27T00:41:39;5.65;;;2.00;;
35276;SDS011;21401;50.878;8.050;2022-09-27T00:46:52;6.82;;;1.67;;
35276;SDS011;21401;50.878;8.050;2022-09-27T00:52:03;6.13;;;1.75;;
35276;SDS011;21401;50.878;8.050;2022-09-27T00:54:38;4.35;;;1.95;;
35276;SDS011;21401;50.878;8.050;2022-09-27T00:57:09;4.65;;;2.13;;
35276;SDS011;21401;50.878;8.050;2022-09-27T01:00:20;8.48;;;2.10;;
35276;SDS011;21401;50.878;8.050;2022-09-27T01:02:31;4.63;;;2.00;;
35276;SDS011;21401;50.878;8.050;2022-09-27T01:05:00;8.80;;;2.65;;
35276;SDS011;21401;50.878;8.050;2022-09-27T01:07:32;5.70;;;2.78;;
35276;SDS011;21401;50.878;8.050;2022-09-27T01:09:57;7.63;;;2.70;;
35276;SDS011;21401;50.878;8.050;2022-09-27T01:20:25;7.88;;;3.28;;
35276;SDS011;21401;50.878;8.050;2022-09-27T01:29:00;3.92;;;1.83;;
35276;SDS011;21401;50.878;8.050;2022-09-27T01:37:06;4.35;;;1.88;;
35276;SDS011;21401;50.878;8.050;2022-09-27T01:48:17;6.35;;;2.67;;
35276;SDS011;21401;50.878;8.050;2022-09-27T01:55:53;2.88;;;1.27;;
35276;SDS011;21401;50.878;8.050;2022-09-27T01:58:28;4.20;;;2.33;;
35276;SDS011;21401;50.878;8.050;2022-09-27T02:01:09;4.63;;;2.30;;
35276;SDS011;21401;50.878;8.050;2022-09-27T02:03:42;3.35;;;2.00;;
35276;SDS011;21401;50.878;8.050;2022-09-27T02:06:14;2.30;;;1.47;;
35276;SDS011;21401;50.878;8.050;2022-09-27T02:08:53;3.35;;;2.17;;
35276;SDS011;21401;50.878;8.050;2022-09-27T02:11:41;6.15;;;2.35;;
35276;SDS011;21401;50.878;8.050;2022-09-27T02:14:21;2.60;;;1.73;;
35276;SDS011;21401;50.878;8.050;2022-09-27T02:25:13;3.15;;;2.28;;
35276;SDS011;21401;50.878;8.050;2022-09-27T02:27:49;6.30;;;1.60;;
35276;SDS011;21401;50.878;8.050;2022-09-27T02:30:16;4.80;;;1.60;;
35276;SDS011;21401;50.878;8.050;2022-09-27T02:32:43;2.97;;;1.58;;
35276;SDS011;21401;50.878;8.050;2022-09-27T02:35:11;5.28;;;1.98;;
35276;SDS011;21401;50.878;8.050;2022-09-27T02:37:43;3.35;;;1.90;;
35276;SDS011;21401;50.878;8.050;2022-09-27T02:40:12;2.38;;;1.73;;
35276;SDS011;21401;50.878;8.050;2022-09-27T02:42:37;7.43;;;2.20;;
35276;SDS011;21401;50.878;8.050;2022-09-27T02:45:07;2.97;;;1.98;;
35276;SDS011;21401;50.878;8.050;2022-09-27T02:55:42;4.75;;;2.47;;
35276;SDS011;21401;50.878;8.050;2022-09-27T02:58:32;5.88;;;2.90;;
35276;SDS011;21401;50.878;8.050;2022-09-27T03:06:31;7.38;;;3.65;;
35276;SDS011;21401;50.878;8.050;2022-09-27T03:08:58;6.00;;;3.35;;
35276;SDS011;21401;50.878;8.050;2022-09-27T03:11:28;4.93;;;3.25;;
35276;SDS011;21401;50.878;8.050;2022-09-27T03:13:54;6.45;;;3.50;;
35276;SDS011;21401;50.878;8.050;2022-09-27T03:16:19;8.32;;;3.85;;
35276;SDS011;21401;50.878;8.050;2022-09-27T03:18:45;5.82;;;4.18;;
35276;SDS011;21401;50.878;8.050;2022-09-27T03:21:13;9.63;;;4.03;;
35276;SDS011;21401;50.878;8.050;2022-09-27T03:23:38;6.07;;;3.80;;
35276;SDS011;21401;50.878;8.050;2022-09-27T03:26:06;8.48;;;3.83;;
35276;SDS011;21401;50.878;8.050;2022-09-27T03:28:32;5.30;;;3.58;;
35276;SDS011;21401;50.878;8.050;2022-09-27T03:30:59;6.40;;;3.40;;
35276;SDS011;21401;50.878;8.050;2022-09-27T03:33:27;5.68;;;3.47;;
35276;SDS011;21401;50.878;8.050;2022-09-27T03:35:53;8.60;;;3.75;;
35276;SDS011;21401;50.878;8.050;2022-09-27T03:38:18;4.57;;;3.13;;
35276;SDS011;21401;50.878;8.050;2022-09-27T03:40:44;7.30;;;3.58;;
35276;SDS011;21401;50.878;8.050;2022-09-27T03:43:14;8.52;;;3.75;;
35276;SDS011;21401;50.878;8.050;2022-09-27T03:45:41;7.70;;;3.92;;
35276;SDS011;21401;50.878;8.050;2022-09-27T03:48:10;4.93;;;3.47;;
35276;SDS011;21401;50.878;8.050;2022-09-27T03:50:40;5.93;;;3.63;;
35276;SDS011;21401;50.878;8.050;2022-09-27T03:53:06;7.10;;;4.00;;
35276;SDS011;21401;50.878;8.050;2022-09-27T03:55:34;6.32;;;4.68;;
35276;SDS011;21401;50.878;8.050;2022-09-27T03:58:02;8.73;;;4.85;;
35276;SDS011;21401;50.878;8.050;2022-09-27T04:00:28;8.60;;;4.72;;
35276;SDS011;21401;50.878;8.050;2022-09-27T04:02:56;7.15;;;3.80;;
35276;SDS011;21401;50.878;8.050;2022-09-27T04:05:23;6.80;;;4.13;;
35276;SDS011;21401;50.878;8.050;2022-09-27T04:07:49;7.28;;;3.28;;
35276;SDS011;21401;50.878;8.050;2022-09-27T04:10:15;7.55;;;3.28;;
35276;SDS011;21401;50.878;8.050;2022-09-27T04:12:41;7.53;;;3.40;;
35276;SDS011;21401;50.878;8.050;2022-09-27T04:15:07;3.63;;;3.03;;
35276;SDS011;21401;50.878;8.050;2022-09-27T04:17:34;6.95;;;2.85;;
35276;SDS011;21401;50.878;8.050;2022-09-27T04:20:02;7.78;;;3.60;;
35276;SDS011;21401;50.878;8.050;2022-09-27T04:22:30;8.05;;;3.53;;
35276;SDS011;21401;50.878;8.050;2022-09-27T04:24:58;5.22;;;3.17;;
35276;SDS011;21401;50.878;8.050;2022-09-27T04:27:23;5.80;;;4.72;;
35276;SDS011;21401;50.878;8.050;2022-09-27T04:29:51;9.95;;;3.33;;
35276;SDS011;21401;50.878;8.050;2022-09-27T04:32:19;7.22;;;3.25;;
35276;SDS011;21401;50.878;8.050;2022-09-27T04:34:45;4.10;;;3.10;;
35276;SDS011;21401;50.878;8.050;2022-09-27T04:37:31;5.40;;;3.50;;
35276;SDS011;21401;50.878;8.050;2022-09-27T04:40:00;6.80;;;3.50;;
35276;SDS011;21401;50.878;8.050;2022-09-27T04:42:28;10.93;;;3.72;;
35276;SDS011;21401;50.878;8.050;2022-09-27T04:44:54;8.68;;;3.80;;
35276;SDS011;21401;50.878;8.050;2022-09-27T04:47:19;4.95;;;2.97;;
35276;SDS011;21401;50.878;8.050;2022-09-27T04:49:45;9.10;;;3.63;;
35276;SDS011;21401;50.878;8.050;2022-09-27T04:52:14;4.38;;;3.00;;
35276;SDS011;21401;50.878;8.050;2022-09-27T04:54:44;4.78;;;3.03;;
35276;SDS011;21401;50.878;8.050;2022-09-27T04:57:09;4.80;;;2.70;;
35276;SDS011;21401;50.878;8.050;2022-09-27T04:59:36;5.05;;;3.40;;
35276;SDS011;21401;50.878;8.050;2022-09-27T05:02:04;6.82;;;3.33;;
35276;SDS011;21401;50.878;8.050;2022-09-27T05:04:32;3.78;;;2.75;;
35276;SDS011;21401;50.878;8.050;2022-09-27T05:06:58;4.45;;;2.60;;
35276;SDS011;21401;50.878;8.050;2022-09-27T05:09:23;8.00;;;3.65;;
35276;SDS011;21401;50.878;8.050;2022-09-27T05:11:49;5.53;;;3.45;;
35276;SDS011;21401;50.878;8.050;2022-09-27T05:14:14;6.13;;;3.33;;
35276;SDS011;21401;50.878;8.050;2022-09-27T05:16:40;6.80;;;3.80;;
35276;SDS011;21401;50.878;8.050;2022-09-27T05:19:06;9.02;;;4.18;;
35276;SDS011;21401;50.878;8.050;2022-09-27T05:21:33;6.55;;;3.80;;
35276;SDS011;21401;50.878;8.050;2022-09-27T05:24:01;5.93;;;3.47;;
35276;SDS011;21401;50.878;8.050;2022-09-27T05:26:27;5.97;;;3.80;;
35276;SDS011;21401;50.878;8.050;2022-09-27T05:28:52;11.48;;;4.00;;
35276;SDS011;21401;50.878;8.050;2022-09-27T05:31:18;9.77;;;3.70;;
35276;SDS011;21401;50.878;8.050;2022-09-27T05:33:44;3.90;;;3.50;;
35276;SDS011;21401;50.878;8.050;2022-09-27T05:36:09;5.18;;;4.03;;
35276;SDS011;21401;50.878;8.050;2022-09-27T05:38:36;7.07;;;4.10;;
35276;SDS011;21401;50.878;8.050;2022-09-27T05:41:05;6.13;;;4.32;;
35276;SDS011;21401;50.878;8.050;2022-09-27T05:43:30;7.88;;;4.80;;
35276;SDS011;21401;50.878;8.050;2022-09-27T05:46:00;6.35;;;5.07;;
35276;SDS011;21401;50.878;8.050;2022-09-27T05:48:26;7.40;;;5.68;;
35276;SDS011;21401;50.878;8.050;2022-09-27T05:50:56;15.02;;;5.78;;
35276;SDS011;21401;50.878;8.050;2022-09-27T05:53:28;9.65;;;6.03;;
35276;SDS011;21401;50.878;8.050;2022-09-27T05:55:59;6.90;;;5.05;;
35276;SDS011;21401;50.878;8.050;2022-09-27T05:58:27;8.07;;;5.82;;
35276;SDS011;21401;50.878;8.050;2022-09-27T06:00:53;9.25;;;5.38;;
35276;SDS011;21401;50.878;8.050;2022-09-27T06:03:19;10.27;;;5.88;;
35276;SDS011;21401;50.878;8.050;2022-09-27T06:05:45;8.48;;;6.22;;
35276;SDS011;21401;50.878;8.050;2022-09-27T06:08:11;7.50;;;6.15;;
35276;SDS011;21401;50.878;8.050;2022-09-27T06:10:37;11.90;;;6.05;;
35276;SDS011;21401;50.878;8.050;2022-09-27T06:13:05;8.32;;;5.25;;
35276;SDS011;21401;50.878;8.050;2022-09-27T06:15:36;15.15;;;5.78;;
35276;SDS011;21401;50.878;8.050;2022-09-27T06:18:04;12.18;;;6.88;;
35276;SDS011;21401;50.878;8.050;2022-09-27T06:20:34;13.20;;;5.93;;
35276;SDS011;21401;50.878;8.050;2022-09-27T06:23:06;9.98;;;6.30;;
35276;SDS011;21401;50.878;8.050;2022-09-27T06:25:33;7.60;;;5.72;;
35276;SDS011;21401;50.878;8.050;2022-09-27T06:27:59;10.77;;;6.85;;
35276;SDS011;21401;50.878;8.050;2022-09-27T06:30:27;13.20;;;7.38;;
35276;SDS011;21401;50.878;8.050;2022-09-27T06:32:56;13.57;;;7.70;;
35276;SDS011;21401;50.878;8.050;2022-09-27T06:35:24;11.15;;;7.25;;
35276;SDS011;21401;50.878;8.050;2022-09-27T06:37:50;14.85;;;7.78;;
35276;SDS011;21401;50.878;8.050;2022-09-27T06:40:16;14.43;;;7.78;;
35276;SDS011;21401;50.878;8.050;2022-09-27T06:42:44;13.20;;;7.93;;
35276;SDS011;21401;50.878;8.050;2022-09-27T06:45:13;12.32;;;7.38;;
35276;SDS011;21401;50.878;8.050;2022-09-27T06:47:41;12.60;;;8.20;;
35276;SDS011;21401;50.878;8.050;2022-09-27T06:50:06;13.80;;;9.43;;
35276;SDS011;21401;50.878;8.050;2022-09-27T06:52:32;11.82;;;7.50;;
35276;SDS011;21401;50.878;8.050;2022-09-27T06:55:01;13.50;;;8.43;;
35276;SDS011;21401;50.878;8.050;2022-09-27T06:57:28;12.82;;;8.38;;
35276;SDS011;21401;50.878;8.050;2022-09-27T07:00:15;13.10;;;8.15;;
35276;SDS011;21401;50.878;8.050;2022-09-27T07:02:53;11.18;;;7.60;;
35276;SDS011;21401;50.878;8.050;2022-09-27T07:05:28;11.27;;;7.55;;
35276;SDS011;21401;50.878;8.050;2022-09-27T07:07:55;13.27;;;8.48;;
35276;SDS011;21401;50.878;8.050;2022-09-27T07:10:24;14.40;;;10.18;;
35276;SDS011;21401;50.878;8.050;2022-09-27T07:12:52;16.95;;;7.80;;
35276;SDS011;21401;50.878;8.050;2022-09-27T07:15:19;12.63;;;9.18;;
35276;SDS011;21401;50.878;8.050;2022-09-27T07:17:45;12.20;;;8.50;;
35276;SDS011;21401;50.878;8.050;2022-09-27T07:20:21;16.75;;;8.25;;
35276;SDS011;21401;50.878;8.050;2022-09-27T07:22:47;10.93;;;7.55;;
35276;SDS011;21401;50.878;8.050;2022-09-27T07:25:13;10.05;;;7.68;;
35276;SDS011;21401;50.878;8.050;2022-09-27T07:27:39;9.40;;;6.13;;
35276;SDS011;21401;50.878;8.050;2022-09-27T07:30:06;11.82;;;6.35;;
35276;SDS011;21401;50.878;8.050;2022-09-27T07:32:32;12.48;;;6.78;;
35276;SDS011;21401;50.878;8.050;2022-09-27T07:35:04;18.10;;;6.78;;
35276;SDS011;21401;50.878;8.050;2022-09-27T07:37:32;14.48;;;7.13;;
35276;SDS011;21401;50.878;8.050;2022-09-27T07:39:59;11.68;;;6.63;;
35276;SDS011;21401;50.878;8.050;2022-09-27T07:42:25;12.85;;;7.15;;
35276;SDS011;21401;50.878;8.050;2022-09-27T07:44:53;10.85;;;7.05;;
35276;SDS011;21401;50.878;8.050;2022-09-27T07:47:23;12.05;;;7.55;;
35276;SDS011;21401;50.878;8.050;2022-09-27T07:49:52;9.38;;;7.22;;
35276;SDS011;21401;50.878;8.050;2022-09-27T07:52:18;11.45;;;6.75;;
35276;SDS011;21401;50.878;8.050;2022-09-27T07:54:47;14.18;;;6.63;;
35276;SDS011;21401;50.878;8.050;2022-09-27T07:57:15;12.50;;;7.10;;
35276;SDS011;21401;50.878;8.050;2022-09-27T07:59:41;11.90;;;7.30;;
35276;SDS011;21401;50.878;8.050;2022-09-27T08:02:13;11.77;;;7.20;;
35276;SDS011;21401;50.878;8.050;2022-09-27T08:04:40;10.00;;;6.32;;
35276;SDS011;21401;50.878;8.050;2022-09-27T08:07:11;11.43;;;7.20;;
35276;SDS011;21401;50.878;8.050;2022-09-27T08:09:37;9.38;;;6.82;;
35276;SDS011;21401;50.878;8.050;2022-09-27T08:12:07;13.77;;;6.35;;
35276;SDS011;21401;50.878;8.050;2022-09-27T08:14:34;11.35;;;6.10;;
35276;SDS011;21401;50.878;8.050;2022-09-27T08:16:59;7.45;;;4.93;;
35276;SDS011;21401;50.878;8.050;2022-09-27T08:19:27;15.38;;;7.57;;
35276;SDS011;21401;50.878;8.050;2022-09-27T08:21:55;10.73;;;5.68;;
35276;SDS011;21401;50.878;8.050;2022-09-27T08:24:21;9.23;;;4.75;;
35276;SDS011;21401;50.878;8.050;2022-09-27T08:26:46;10.63;;;4.25;;
35276;SDS011;21401;50.878;8.050;2022-09-27T08:29:12;9.55;;;5.03;;
35276;SDS011;21401;50.878;8.050;2022-09-27T08:31:38;10.68;;;6.03;;
35276;SDS011;21401;50.878;8.050;2022-09-27T08:34:05;8.48;;;4.53;;
35276;SDS011;21401;50.878;8.050;2022-09-27T08:36:31;9.90;;;4.65;;
35276;SDS011;21401;50.878;8.050;2022-09-27T08:39:00;8.85;;;4.45;;
35276;SDS011;21401;50.878;8.050;2022-09-27T08:41:51;7.32;;;4.13;;
35276;SDS011;21401;50.878;8.050;2022-09-27T08:47:01;8.45;;;3.70;;
35276;SDS011;21401;50.878;8.050;2022-09-27T08:49:38;3.97;;;3.08;;
35276;SDS011;21401;50.878;8.050;2022-09-27T08:52:12;7.47;;;3.25;;
35276;SDS011;21401;50.878;8.050;2022-09-27T08:57:17;9.55;;;2.63;;
35276;SDS011;21401;50.878;8.050;2022-09-27T08:59:48;4.10;;;2.40;;
35276;SDS011;21401;50.878;8.050;2022-09-27T09:02:22;6.50;;;2.10;;
35276;SDS011;21401;50.878;8.050;2022-09-27T09:04:50;4.75;;;2.65;;
35276;SDS011;21401;50.878;8.050;2022-09-27T09:25:21;1.52;;;0.63;;
35276;SDS011;21401;50.878;8.050;2022-09-27T09:33:24;4.28;;;1.90;;
35276;SDS011;21401;50.878;8.050;2022-09-27T09:35:54;4.18;;;1.77;;
35276;SDS011;21401;50.878;8.050;2022-09-27T09:38:49;9.77;;;3.63;;
35276;SDS011;21401;50.878;8.050;2022-09-27T09:41:24;5.78;;;2.25;;
35276;SDS011;21401;50.878;8.050;2022-09-27T09:44:00;7.32;;;2.63;;
35276;SDS011;21401;50.878;8.050;2022-09-27T09:46:47;4.05;;;1.98;;
35276;SDS011;21401;50.878;8.050;2022-09-27T09:50:00;5.88;;;1.90;;
35276;SDS011;21401;50.878;8.050;2022-09-27T09:52:13;6.25;;;2.05;;
35276;SDS011;21401;50.878;8.050;2022-09-27T09:54:48;5.95;;;2.15;;
35276;SDS011;21401;50.878;8.050;2022-09-27T09:57:21;5.50;;;2.05;;
35276;SDS011;21401;50.878;8.050;2022-09-27T09:59:54;3.30;;;1.92;;
35276;SDS011;21401;50.878;8.050;2022-09-27T10:04:59;2.58;;;1.42;;
35276;SDS011;21401;50.878;8.050;2022-09-27T10:07:26;3.08;;;1.40;;
35276;SDS011;21401;50.878;8.050;2022-09-27T10:09:54;3.40;;;1.30;;
35276;SDS011;21401;50.878;8.050;2022-09-27T10:12:23;3.20;;;1.55;;
35276;SDS011;21401;50.878;8.050;2022-09-27T10:14:50;2.55;;;1.33;;
35276;SDS011;21401;50.878;8.050;2022-09-27T10:17:19;4.47;;;1.65;;
35276;SDS011;21401;50.878;8.050;2022-09-27T10:19:51;2.25;;;1.40;;
35276;SDS011;21401;50.878;8.050;2022-09-27T10:27:24;3.38;;;1.30;;
35276;SDS011;21401;50.878;8.050;2022-09-27T10:29:56;1.27;;;1.17;;
35276;SDS011;21401;50.878;8.050;2022-09-27T10:32:26;3.33;;;1.67;;
35276;SDS011;21401;50.878;8.050;2022-09-27T10:35:19;3.47;;;1.05;;
35276;SDS011;21401;50.878;8.050;2022-09-27T10:37:46;2.83;;;1.73;;
35276;SDS011;21401;50.878;8.050;2022-09-27T10:40:15;2.78;;;1.00;;
35276;SDS011;21401;50.878;8.050;2022-09-27T10:42:51;1.10;;;0.80;;
35276;SDS011;21401;50.878;8.050;2022-09-27T10:47:57;1.15;;;0.68;;
35276;SDS011;21401;50.878;8.050;2022-09-27T10:50:26;6.15;;;1.80;;
35276;SDS011;21401;50.878;8.050;2022-09-27T10:53:03;5.63;;;1.52;;
35276;SDS011;21401;50.878;8.050;2022-09-27T10:55:35;2.67;;;1.30;;
35276;SDS011;21401;50.878;8.050;2022-09-27T10:58:02;4.47;;;1.17;;
35276;SDS011;21401;50.878;8.050;2022-09-27T11:00:31;6.25;;;0.93;;
35276;SDS011;21401;50.878;8.050;2022-09-27T11:03:02;6.45;;;2.13;;
35276;SDS011;21401;50.878;8.050;2022-09-27T11:05:42;3.33;;;1.27;;
35276;SDS011;21401;50.878;8.050;2022-09-27T11:10:42;3.03;;;1.48;;
35276;SDS011;21401;50.878;8.050;2022-09-27T11:13:14;3.80;;;1.17;;
35276;SDS011;21401;50.878;8.050;2022-09-27T11:18:20;2.60;;;1.40;;
35276;SDS011;21401;50.878;8.050;2022-09-27T11:21:06;3.80;;;1.85;;
35276;SDS011;21401;50.878;8.050;2022-09-27T11:24:03;1.92;;;1.20;;
35276;SDS011;21401;50.878;8.050;2022-09-27T11:38:12;1.70;;;0.82;;
35276;SDS011;21401;50.878;8.050;2022-09-27T11:46:41;1.35;;;0.90;;
35276;SDS011;21401;50.878;8.050;2022-09-27T11:49:34;3.55;;;1.75;;
35276;SDS011;21401;50.878;8.050;2022-09-27T11:57:30;1.73;;;1.15;;
35276;SDS011;21401;50.878;8.050;2022-09-27T12:13:51;10.02;;;3.90;;
35276;SDS011;21401;50.878;8.050;2022-09-27T12:16:25;6.72;;;1.70;;
35276;SDS011;21401;50.878;8.050;2022-09-27T12:18:57;7.22;;;3.20;;
35276;SDS011;21401;50.878;8.050;2022-09-27T12:21:25;3.13;;;1.27;;
35276;SDS011;21401;50.878;8.050;2022-09-27T12:23:54;7.13;;;2.72;;
35276;SDS011;21401;50.878;8.050;2022-09-27T12:26:28;1.75;;;0.95;;
35276;SDS011;21401;50.878;8.050;2022-09-27T12:29:04;4.63;;;2.40;;
35276;SDS011;21401;50.878;8.050;2022-09-27T12:37:24;1.63;;;1.17;;
35276;SDS011;21401;50.878;8.050;2022-09-27T12:39:59;4.88;;;1.70;;
35276;SDS011;21401;50.878;8.050;2022-09-27T12:45:58;14.80;;;6.30;;
35276;SDS011;21401;50.878;8.050;2022-09-27T12:51:46;20.55;;;11.88;;
35276;SDS011;21401;50.878;8.050;2022-09-27T12:54:48;3.90;;;2.58;;
35276;SDS011;21401;50.878;8.050;2022-09-27T13:00:24;3.88;;;2.53;;
35276;SDS011;21401;50.878;8.050;2022-09-27T13:06:07;4.82;;;2.75;;
35276;SDS011;21401;50.878;8.050;2022-09-27T13:14:33;3.33;;;2.00;;
35276;SDS011;21401;50.878;8.050;2022-09-27T13:17:03;3.78;;;2.33;;
35276;SDS011;21401;50.878;8.050;2022-09-27T13:22:04;3.15;;;1.80;;
35276;SDS011;21401;50.878;8.050;2022-09-27T13:32:31;4.55;;;2.50;;
35276;SDS011;21401;50.878;8.050;2022-09-27T13:35:45;3.80;;;2.25;;
35276;SDS011;21401;50.878;8.050;2022-09-27T13:37:56;5.18;;;2.10;;
35276;SDS011;21401;50.878;8.050;2022-09-27T13:40:34;4.82;;;2.22;;
35276;SDS011;21401;50.878;8.050;2022-09-27T13:48:44;6.22;;;3.25;;
35276;SDS011;21401;50.878;8.050;2022-09-27T13:54:33;4.95;;;1.63;;
35276;SDS011;21401;50.878;8.050;2022-09-27T14:00:47;2.85;;;1.42;;
35276;SDS011;21401;50.878;8.050;2022-09-27T14:03:27;7.38;;;3.60;;
35276;SDS011;21401;50.878;8.050;2022-09-27T14:06:19;5.38;;;2.05;;
35276;SDS011;21401;50.878;8.050;2022-09-27T14:08:57;3.97;;;2.22;;
35276;SDS011;21401;50.878;8.050;2022-09-27T14:11:32;3.35;;;2.10;;
35276;SDS011;21401;50.878;8.050;2022-09-27T14:14:04;4.05;;;2.28;;
35276;SDS011;21401;50.878;8.050;2022-09-27T14:16:42;5.10;;;2.00;;
35276;SDS011;21401;50.878;8.050;2022-09-27T14:19:13;3.97;;;2.17;;
35276;SDS011;21401;50.878;8.050;2022-09-27T14:21:47;6.22;;;2.10;;
35276;SDS011;21401;50.878;8.050;2022-09-27T14:24:50;3.55;;;1.75;;
35276;SDS011;21401;50.878;8.050;2022-09-27T14:29:51;3.80;;;1.02;;
35276;SDS011;21401;50.878;8.050;2022-09-27T14:32:21;2.30;;;1.10;;
35276;SDS011;21401;50.878;8.050;2022-09-27T14:37:58;3.42;;;1.13;;
35276;SDS011;21401;50.878;8.050;2022-09-27T14:40:35;2.05;;;1.13;;
35276;SDS011;21401;50.878;8.050;2022-09-27T14:43:12;3.75;;;1.50;;
35276;SDS011;21401;50.878;8.050;2022-09-27T14:45:42;4.15;;;1.20;;
35276;SDS011;21401;50.878;8.050;2022-09-27T14:51:02;3.63;;;1.38;;
35276;SDS011;21401;50.878;8.050;2022-09-27T14:53:41;2.83;;;1.63;;
35276;SDS011;21401;50.878;8.050;2022-09-27T14:56:24;4.07;;;1.45;;
35276;SDS011;21401;50.878;8.050;2022-09-27T15:01:46;5.05;;;1.85;;
35276;SDS011;21401;50.878;8.050;2022-09-27T15:04:19;2.85;;;1.30;;
35276;SDS011;21401;50.878;8.050;2022-09-27T15:06:48;5.20;;;1.50;;
35276;SDS011;21401;50.878;8.050;2022-09-27T15:09:15;4.40;;;1.55;;
35276;SDS011;21401;50.878;8.050;2022-09-27T15:11:47;5.70;;;1.98;;
35276;SDS011;21401;50.878;8.050;2022-09-27T15:14:26;3.33;;;1.48;;
35276;SDS011;21401;50.878;8.050;2022-09-27T15:16:57;2.00;;;1.20;;
35276;SDS011;21401;50.878;8.050;2022-09-27T15:19:29;5.13;;;2.35;;
35276;SDS011;21401;50.878;8.050;2022-09-27T15:24:47;3.55;;;2.00;;
35276;SDS011;21401;50.878;8.050;2022-09-27T15:27:16;4.75;;;2.20;;
35276;SDS011;21401;50.878;8.050;2022-09-27T15:29:46;6.32;;;2.67;;
35276;SDS011;21401;50.878;8.050;2022-09-27T15:32:17;6.20;;;4.15;;
35276;SDS011;21401;50.878;8.050;2022-09-27T15:34:45;2.85;;;2.00;;
35276;SDS011;21401;50.878;8.050;2022-09-27T15:37:33;2.60;;;2.03;;
35276;SDS011;21401;50.878;8.050;2022-09-27T15:42:53;5.00;;;2.75;;
35276;SDS011;21401;50.878;8.050;2022-09-27T15:50:38;3.95;;;2.35;;
35276;SDS011;21401;50.878;8.050;2022-09-27T15:53:05;8.85;;;4.18;;
35276;SDS011;21401;50.878;8.050;2022-09-27T15:55:32;18.67;;;8.02;;
35276;SDS011;21401;50.878;8.050;2022-09-27T15:58:03;12.95;;;4.93;;
35276;SDS011;21401;50.878;8.050;2022-09-27T16:00:36;3.72;;;2.40;;
35276;SDS011;21401;50.878;8.050;2022-09-27T16:03:01;3.42;;;2.05;;
35276;SDS011;21401;50.878;8.050;2022-09-27T16:05:27;5.38;;;2.08;;
35276;SDS011;21401;50.878;8.050;2022-09-27T16:07:57;4.82;;;2.60;;
35276;SDS011;21401;50.878;8.050;2022-09-27T16:10:25;4.03;;;2.53;;
35276;SDS011;21401;50.878;8.050;2022-09-27T16:12:54;7.22;;;2.90;;
35276;SDS011;21401;50.878;8.050;2022-09-27T16:15:22;6.03;;;3.05;;
35276;SDS011;21401;50.878;8.050;2022-09-27T16:17:48;9.50;;;3.72;;
35276;SDS011;21401;50.878;8.050;2022-09-27T16:20:16;5.13;;;2.80;;
35276;SDS011;21401;50.878;8.050;2022-09-27T16:22:45;7.35;;;3.50;;
35276;SDS011;21401;50.878;8.050;2022-09-27T16:25:11;6.80;;;3.42;;
35276;SDS011;21401;50.878;8.050;2022-09-27T16:27:36;6.80;;;3.30;;
35276;SDS011;21401;50.878;8.050;2022-09-27T16:30:02;5.93;;;3.17;;
35276;SDS011;21401;50.878;8.050;2022-09-27T16:32:28;5.35;;;2.63;;
35276;SDS011;21401;50.878;8.050;2022-09-27T16:34:59;8.48;;;5.57;;
35276;SDS011;21401;50.878;8.050;2022-09-27T16:37:24;5.25;;;2.60;;
35276;SDS011;21401;50.878;8.050;2022-09-27T16:39:50;5.63;;;2.90;;
35276;SDS011;21401;50.878;8.050;2022-09-27T16:42:18;4.28;;;2.60;;
35276;SDS011;21401;50.878;8.050;2022-09-27T16:44:46;3.33;;;2.40;;
35276;SDS011;21401;50.878;8.050;2022-09-27T16:47:14;4.05;;;2.33;;
35276;SDS011;21401;50.878;8.050;2022-09-27T16:49:43;5.75;;;2.50;;
35276;SDS011;21401;50.878;8.050;2022-09-27T16:52:28;4.97;;;2.40;;
35276;SDS011;21401;50.878;8.050;2022-09-27T16:54:55;7.18;;;3.30;;
35276;SDS011;21401;50.878;8.050;2022-09-27T16:57:20;6.57;;;2.50;;
35276;SDS011;21401;50.878;8.050;2022-09-27T16:59:46;6.53;;;2.70;;
35276;SDS011;21401;50.878;8.050;2022-09-27T17:02:14;9.38;;;2.70;;
35276;SDS011;21401;50.878;8.050;2022-09-27T17:04:45;4.30;;;2.70;;
35276;SDS011;21401;50.878;8.050;2022-09-27T17:07:13;5.22;;;2.50;;
35276;SDS011;21401;50.878;8.050;2022-09-27T17:09:38;6.40;;;2.78;;
35276;SDS011;21401;50.878;8.050;2022-09-27T17:12:04;3.83;;;2.25;;
35276;SDS011;21401;50.878;8.050;2022-09-27T17:14:30;8.18;;;2.13;;
35276;SDS011;21401;50.878;8.050;2022-09-27T17:16:56;9.05;;;2.55;;
35276;SDS011;21401;50.878;8.050;2022-09-27T17:19:42;5.68;;;1.98;;
35276;SDS011;21401;50.878;8.050;2022-09-27T17:22:12;7.40;;;2.20;;
35276;SDS011;21401;50.878;8.050;2022-09-27T17:24:37;7.20;;;3.35;;
35276;SDS011;21401;50.878;8.050;2022-09-27T17:27:05;4.70;;;2.85;;
35276;SDS011;21401;50.878;8.050;2022-09-27T17:29:31;9.10;;;3.15;;
35276;SDS011;21401;50.878;8.050;2022-09-27T17:31:59;9.02;;;3.17;;
35276;SDS011;21401;50.878;8.050;2022-09-27T17:34:27;8.27;;;3.58;;
35276;SDS011;21401;50.878;8.050;2022-09-27T17:36:56;6.63;;;3.10;;
35276;SDS011;21401;50.878;8.050;2022-09-27T17:39:23;7.88;;;3.25;;
35276;SDS011;21401;50.878;8.050;2022-09-27T17:41:49;8.35;;;3.22;;
35276;SDS011;21401;50.878;8.050;2022-09-27T17:44:16;14.23;;;4.47;;
35276;SDS011;21401;50.878;8.050;2022-09-27T17:46:42;9.88;;;2.63;;
35276;SDS011;21401;50.878;8.050;2022-09-27T17:49:09;4.78;;;2.28;;
35276;SDS011;21401;50.878;8.050;2022-09-27T17:51:54;6.55;;;2.70;;
35276;SDS011;21401;50.878;8.050;2022-09-27T17:54:20;9.60;;;2.83;;
35276;SDS011;21401;50.878;8.050;2022-09-27T17:56:51;6.18;;;2.72;;
35276;SDS011;21401;50.878;8.050;2022-09-27T17:59:17;12.88;;;6.35;;
35276;SDS011;21401;50.878;8.050;2022-09-27T18:01:44;13.10;;;7.28;;
35276;SDS011;21401;50.878;8.050;2022-09-27T18:04:17;10.93;;;4.93;;
35276;SDS011;21401;50.878;8.050;2022-09-27T18:06:50;6.53;;;3.40;;
35276;SDS011;21401;50.878;8.050;2022-09-27T18:09:18;8.77;;;3.65;;
35276;SDS011;21401;50.878;8.050;2022-09-27T18:11:47;6.07;;;2.53;;
35276;SDS011;21401;50.878;8.050;2022-09-27T18:14:15;6.50;;;2.60;;
35276;SDS011;21401;50.878;8.050;2022-09-27T18:16:41;10.55;;;2.38;;
35276;SDS011;21401;50.878;8.050;2022-09-27T18:19:09;8.35;;;2.78;;
35276;SDS011;21401;50.878;8.050;2022-09-27T18:21:37;8.38;;;2.95;;
35276;SDS011;21401;50.878;8.050;2022-09-27T18:24:07;6.15;;;2.30;;
35276;SDS011;21401;50.878;8.050;2022-09-27T18:26:35;7.93;;;2.67;;
35276;SDS011;21401;50.878;8.050;2022-09-27T18:29:12;7.90;;;2.75;;
35276;SDS011;21401;50.878;8.050;2022-09-27T18:31:40;7.80;;;2.22;;
35276;SDS011;21401;50.878;8.050;2022-09-27T18:34:06;5.47;;;2.28;;
35276;SDS011;21401;50.878;8.050;2022-09-27T18:36:32;3.15;;;1.52;;